createdAt,value
2022-09-09T00:00:14.802Z,21.50
2022-09-09T00:02:46.635Z,21.51
2022-09-09T00:05:45.948Z,21.18
2022-09-09T00:08:23.910Z,21.03
2022-09-09T00:11:00.060Z,21.24
2022-09-09T00:13:34.534Z,20.92
2022-09-09T00:16:07.518Z,21.14
2022-09-09T00:18:56.621Z,20.96
2022-09-09T00:22:05.464Z,20.85
2022-09-09T00:24:56.665Z,21.10
2022-09-09T00:27:43.857Z,21.21
2022-09-09T00:30:26.638Z,21.29
2022-09-09T00:33:03.526Z,21.20
2022-09-09T00:35:38.064Z,21.18
2022-09-09T00:38:14.668Z,21.00
2022-09-09T00:41:10.600Z,21.00
2022-09-09T00:43:39.777Z,21.12
2022-09-09T00:46:34.138Z,21.13
2022-09-09T00:49:16.713Z,20.92
2022-09-09T00:51:52.607Z,20.58
2022-09-09T00:54:40.338Z,20.88
2022-09-09T00:57:19.224Z,20.59
2022-09-09T00:59:53.449Z,20.40
2022-09-09T01:02:29.361Z,20.56
2022-09-09T01:05:02.824Z,20.90
2022-09-09T01:07:29.605Z,21.08
2022-09-09T01:10:03.538Z,21.13
2022-09-09T01:12:43.530Z,21.19
2022-09-09T01:15:23.711Z,21.17
2022-09-09T01:18:18.220Z,21.11
2022-09-09T01:20:56.741Z,20.46
2022-09-09T01:23:29.325Z,20.55
2022-09-09T01:26:13.883Z,20.76
2022-09-09T01:28:41.929Z,20.92
2022-09-09T01:31:12.745Z,20.91
2022-09-09T01:33:39.469Z,20.90
2022-09-09T01:36:13.240Z,20.75
2022-09-09T01:38:40.904Z,20.88
2022-09-09T01:41:07.606Z,20.94
2022-09-09T01:43:34.425Z,21.01
2022-09-09T01:46:02.639Z,20.72
2022-09-09T01:48:29.985Z,20.79
2022-09-09T01:50:56.971Z,20.86
2022-09-09T01:53:23.992Z,20.99
2022-09-09T01:55:58.228Z,21.07
2022-09-09T01:58:40.209Z,21.04
2022-09-09T02:01:24.371Z,21.02
2022-09-09T02:03:57.257Z,20.85
2022-09-09T02:06:35.941Z,20.69
2022-09-09T02:09:06.160Z,20.82
2022-09-09T02:11:34.312Z,20.66
2022-09-09T02:14:06.460Z,20.86
2022-09-09T02:16:42.693Z,20.82
2022-09-09T02:19:15.447Z,20.93
2022-09-09T02:21:46.137Z,20.89
2022-09-09T02:24:19.919Z,21.00
2022-09-09T02:26:50.904Z,21.00
2022-09-09T02:29:25.689Z,20.78
2022-09-09T02:31:56.172Z,20.74
2022-09-09T02:34:25.497Z,20.74
2022-09-09T02:36:55.186Z,20.63
2022-09-09T02:39:22.203Z,20.58
2022-09-09T02:41:50.085Z,20.37
2022-09-09T02:44:19.442Z,20.17
2022-09-09T02:47:23.404Z,20.46
2022-09-09T02:50:14.317Z,20.41
2022-09-09T02:53:16.093Z,20.07
2022-09-09T02:56:05.244Z,20.32
2022-09-09T02:58:32.785Z,20.43
2022-09-09T03:01:02.230Z,20.48
2022-09-09T03:03:28.935Z,20.54
2022-09-09T03:05:55.628Z,20.59
2022-09-09T03:08:22.575Z,20.67
2022-09-09T03:10:49.400Z,20.63
2022-09-09T03:13:16.466Z,20.70
2022-09-09T03:15:43.613Z,20.74
2022-09-09T03:21:03.386Z,20.45
2022-09-09T03:23:30.404Z,20.12
2022-09-09T03:25:59.603Z,20.40
2022-09-09T03:28:32.393Z,20.24
2022-09-09T03:31:04.316Z,20.47
2022-09-09T03:33:35.484Z,20.47
2022-09-09T03:36:07.760Z,20.58
2022-09-09T03:38:34.741Z,20.66
2022-09-09T03:41:05.665Z,20.37
2022-09-09T03:43:32.527Z,20.27
2022-09-09T03:45:59.251Z,20.45
2022-09-09T03:48:28.093Z,20.40
2022-09-09T03:50:55.408Z,20.56
2022-09-09T03:53:25.828Z,20.22
2022-09-09T03:56:01.108Z,19.88
2022-09-09T03:58:28.679Z,20.02
2022-09-09T04:00:56.624Z,20.33
2022-09-09T04:03:28.109Z,20.28
2022-09-09T04:05:56.634Z,20.24
2022-09-09T04:08:26.442Z,20.39
2022-09-09T04:10:54.164Z,20.41
2022-09-09T04:13:20.951Z,20.30
2022-09-09T04:15:59.494Z,20.27
2022-09-09T04:18:27.301Z,20.39
2022-09-09T04:20:54.560Z,20.46
2022-09-09T04:23:21.732Z,20.43
2022-09-09T04:25:50.598Z,20.34
2022-09-09T04:28:18.713Z,20.40
2022-09-09T04:30:46.316Z,20.58
2022-09-09T04:33:14.467Z,20.52
2022-09-09T04:35:45.847Z,20.57
2022-09-09T04:38:12.544Z,20.61
2022-09-09T04:40:43.364Z,20.51
2022-09-09T04:43:14.324Z,20.50
2022-09-09T04:45:42.496Z,20.58
2022-09-09T04:48:13.018Z,20.65
2022-09-09T04:50:39.960Z,20.70
2022-09-09T04:53:07.272Z,20.73
2022-09-09T04:55:34.831Z,20.74
2022-09-09T04:58:09.131Z,20.69
2022-09-09T05:00:39.073Z,20.81
2022-09-09T05:03:06.757Z,20.83
2022-09-09T05:05:37.259Z,20.87
2022-09-09T05:08:09.536Z,20.81
2022-09-09T05:10:39.342Z,20.95
2022-09-09T05:13:07.681Z,20.97
2022-09-09T05:15:34.837Z,20.96
2022-09-09T05:18:04.762Z,21.02
2022-09-09T05:20:31.632Z,20.98
2022-09-09T05:22:58.398Z,20.51
2022-09-09T05:25:27.118Z,20.76
2022-09-09T05:27:54.785Z,20.48
2022-09-09T05:30:23.749Z,20.74
2022-09-09T05:32:50.415Z,20.91
2022-09-09T05:35:19.044Z,20.61
2022-09-09T05:37:47.151Z,20.80
2022-09-09T05:40:13.976Z,21.00
2022-09-09T05:42:40.831Z,21.00
2022-09-09T05:45:09.004Z,20.62
2022-09-09T05:47:38.322Z,21.00
2022-09-09T05:50:05.593Z,21.09
2022-09-09T05:52:32.954Z,21.11
2022-09-09T05:55:00.315Z,21.07
2022-09-09T05:57:26.965Z,20.69
2022-09-09T05:59:54.719Z,20.90
2022-09-09T06:02:21.667Z,21.35
2022-09-09T06:04:48.654Z,21.13
2022-09-09T06:07:15.673Z,21.00
2022-09-09T06:09:45.136Z,21.27
2022-09-09T06:12:12.069Z,21.25
2022-09-09T06:14:40.342Z,21.61
2022-09-09T06:17:10.079Z,21.76
2022-09-09T06:19:36.793Z,21.92
2022-09-09T06:22:03.446Z,22.25
2022-09-09T06:24:31.288Z,22.38
2022-09-09T06:26:58.471Z,22.44
2022-09-09T06:29:25.107Z,22.41
2022-09-09T06:31:51.866Z,22.39
2022-09-09T06:34:19.227Z,22.18
2022-09-09T06:36:46.930Z,22.48
2022-09-09T06:39:15.120Z,22.50
2022-09-09T06:41:43.765Z,22.34
2022-09-09T06:44:12.873Z,22.38
2022-09-09T06:46:40.864Z,22.22
2022-09-09T06:49:09.567Z,22.53
2022-09-09T06:51:37.738Z,22.14
2022-09-09T06:54:05.382Z,22.06
2022-09-09T06:56:42.964Z,22.28
2022-09-09T06:59:10.355Z,23.09
2022-09-09T07:01:42.230Z,23.14
2022-09-09T07:04:10.130Z,23.21
2022-09-09T07:06:40.824Z,23.01
2022-09-09T07:09:09.994Z,23.26
2022-09-09T07:11:54.949Z,22.92
2022-09-09T07:14:22.981Z,22.88
2022-09-09T07:16:49.673Z,23.05
2022-09-09T07:19:16.853Z,23.18
2022-09-09T07:21:44.247Z,23.44
2022-09-09T07:24:13.627Z,23.57
2022-09-09T07:26:41.124Z,23.70
2022-09-09T07:29:10.983Z,23.79
2022-09-09T07:31:41.228Z,23.39
2022-09-09T07:34:08.343Z,23.71
2022-09-09T07:36:37.459Z,23.77
2022-09-09T07:39:07.616Z,23.71
2022-09-09T07:41:44.097Z,23.61
2022-09-09T07:44:13.825Z,23.84
2022-09-09T07:46:42.234Z,23.74
2022-09-09T07:49:09.925Z,24.16
2022-09-09T07:51:39.936Z,23.30
2022-09-09T07:54:11.756Z,24.22
2022-09-09T07:56:41.606Z,24.07
2022-09-09T07:59:10.581Z,24.22
2022-09-09T08:01:40.633Z,24.43
2022-09-09T08:04:29.140Z,24.85
2022-09-09T08:07:01.179Z,24.77
2022-09-09T08:09:30.016Z,24.87
2022-09-09T08:11:57.878Z,25.01
2022-09-09T08:14:25.455Z,25.31
2022-09-09T08:16:55.278Z,24.70
2022-09-09T08:19:22.131Z,24.56
2022-09-09T08:21:54.044Z,24.90
2022-09-09T08:24:24.778Z,25.33
2022-09-09T08:26:51.763Z,25.39
2022-09-09T08:29:19.258Z,25.74
2022-09-09T08:31:55.416Z,25.37
2022-09-09T08:34:23.034Z,25.38
2022-09-09T08:36:51.315Z,25.21
2022-09-09T08:39:20.097Z,25.43
2022-09-09T08:42:20.577Z,25.29
2022-09-09T08:44:55.998Z,25.54
2022-09-09T08:47:50.699Z,25.89
2022-09-09T08:50:33.539Z,25.40
2022-09-09T08:53:09.314Z,25.06
2022-09-09T08:55:39.836Z,25.28
2022-09-09T08:58:21.280Z,25.28
2022-09-09T09:01:12.843Z,25.40
2022-09-09T09:04:15.251Z,25.46
2022-09-09T09:06:47.377Z,25.35
2022-09-09T09:09:32.137Z,25.90
2022-09-09T09:12:02.662Z,26.15
2022-09-09T09:14:31.710Z,26.36
2022-09-09T09:17:10.774Z,25.70
2022-09-09T09:19:41.898Z,26.16
2022-09-09T09:22:26.541Z,26.48
2022-09-09T09:24:57.765Z,26.49
2022-09-09T09:27:50.634Z,26.52
2022-09-09T09:30:30.317Z,26.27
2022-09-09T09:33:27.767Z,26.67
2022-09-09T09:35:54.917Z,26.25
2022-09-09T09:41:12.081Z,26.37
2022-09-09T09:43:44.098Z,27.07
2022-09-09T09:46:25.355Z,26.91
2022-09-09T09:49:03.876Z,26.78
2022-09-09T09:51:35.410Z,26.25
2022-09-09T09:54:14.458Z,26.69
2022-09-09T09:56:42.828Z,26.89
2022-09-09T09:59:23.829Z,27.00
2022-09-09T10:02:18.783Z,27.03
2022-09-09T10:04:46.809Z,27.34
2022-09-09T10:07:19.550Z,27.47
2022-09-09T10:09:48.525Z,27.50
2022-09-09T10:12:45.206Z,26.39
2022-09-09T10:15:34.072Z,26.91
2022-09-09T10:18:06.880Z,26.60
2022-09-09T10:20:52.257Z,26.94
2022-09-09T10:23:44.945Z,26.89
2022-09-09T10:26:20.756Z,27.02
2022-09-09T10:28:53.893Z,27.10
2022-09-09T10:31:36.373Z,27.14
2022-09-09T10:34:31.053Z,26.73
2022-09-09T10:36:59.481Z,26.88
2022-09-09T10:39:26.056Z,27.18
2022-09-09T10:42:13.531Z,26.99
2022-09-09T10:45:03.882Z,26.62
2022-09-09T10:47:51.380Z,26.79
2022-09-09T10:50:59.897Z,26.75
2022-09-09T10:54:12.883Z,26.70
2022-09-09T10:56:41.373Z,27.07
2022-09-09T10:59:23.700Z,26.85
2022-09-09T11:01:57.128Z,26.71
2022-09-09T11:04:33.348Z,26.76
2022-09-09T11:07:09.714Z,26.67
2022-09-09T11:09:46.435Z,26.66
2022-09-09T11:12:20.024Z,26.68
2022-09-09T11:14:58.770Z,26.86
2022-09-09T11:17:55.657Z,26.96
2022-09-09T11:20:22.753Z,27.06
2022-09-09T11:22:59.158Z,27.19
2022-09-09T11:25:40.764Z,27.15
2022-09-09T11:28:29.967Z,26.78
2022-09-09T11:31:17.548Z,26.80
2022-09-09T11:34:22.613Z,26.46
2022-09-09T11:37:06.235Z,27.06
2022-09-09T11:39:45.480Z,26.97
2022-09-09T11:42:15.251Z,27.09
2022-09-09T11:44:43.019Z,27.20
2022-09-09T11:47:31.199Z,27.70
2022-09-09T11:50:28.069Z,27.60
2022-09-09T11:53:13.927Z,27.28
2022-09-09T11:55:41.306Z,27.33
2022-09-09T11:58:12.022Z,27.46
2022-09-09T12:00:46.444Z,27.58
2022-09-09T12:03:47.996Z,26.91
2022-09-09T12:06:29.589Z,27.37
2022-09-09T12:09:12.079Z,26.78
2022-09-09T12:11:38.786Z,27.02
2022-09-09T12:14:05.973Z,27.37
2022-09-09T12:16:36.321Z,27.73
2022-09-09T12:19:07.592Z,27.59
2022-09-09T12:21:48.801Z,28.09
2022-09-09T12:24:28.072Z,26.82
2022-09-09T12:27:03.854Z,26.49
2022-09-09T12:29:49.063Z,27.50
2022-09-09T12:32:26.401Z,27.65
2022-09-09T12:35:04.324Z,27.51
2022-09-09T12:37:45.461Z,27.49
2022-09-09T12:40:20.999Z,27.62
2022-09-09T12:42:47.940Z,27.75
2022-09-09T12:45:19.081Z,28.06
2022-09-09T12:47:46.979Z,28.20
2022-09-09T12:50:35.558Z,28.32
2022-09-09T12:53:17.059Z,28.33
2022-09-09T12:55:54.942Z,27.89
2022-09-09T12:58:22.058Z,28.19
2022-09-09T13:00:57.392Z,27.93
2022-09-09T13:03:25.911Z,27.60
2022-09-09T13:05:54.377Z,27.76
2022-09-09T13:08:26.041Z,28.25
2022-09-09T13:11:06.809Z,28.00
2022-09-09T13:13:47.281Z,27.07
2022-09-09T13:16:34.278Z,27.12
2022-09-09T13:19:20.137Z,26.96
2022-09-09T13:21:46.778Z,27.55
2022-09-09T13:24:33.622Z,28.13
2022-09-09T13:27:25.391Z,28.15
2022-09-09T13:29:58.129Z,28.08
2022-09-09T13:32:28.032Z,27.49
2022-09-09T13:35:05.011Z,27.70
2022-09-09T13:37:39.110Z,27.87
2022-09-09T13:40:11.075Z,27.21
2022-09-09T13:42:43.638Z,27.67
2022-09-09T13:45:21.647Z,28.08
2022-09-09T13:47:53.241Z,28.04
2022-09-09T13:50:23.591Z,28.09
2022-09-09T13:52:54.278Z,27.62
2022-09-09T13:55:23.841Z,27.34
2022-09-09T13:57:59.370Z,27.97
2022-09-09T14:00:34.645Z,27.46
2022-09-09T14:03:04.968Z,28.23
2022-09-09T14:05:33.806Z,28.43
2022-09-09T14:08:04.290Z,28.73
2022-09-09T14:10:31.006Z,28.71
2022-09-09T14:12:58.130Z,28.62
2022-09-09T14:15:25.001Z,28.41
2022-09-09T14:17:53.280Z,28.34
2022-09-09T14:20:20.359Z,28.14
2022-09-09T14:22:49.815Z,28.31
2022-09-09T14:25:16.808Z,28.24
2022-09-09T14:27:43.519Z,28.29
2022-09-09T14:30:10.904Z,27.44
2022-09-09T14:32:37.581Z,27.91
2022-09-09T14:35:04.938Z,28.19
2022-09-09T14:37:32.309Z,27.88
2022-09-09T14:40:04.624Z,27.90
2022-09-09T14:42:31.358Z,28.11
2022-09-09T14:44:58.215Z,28.20
2022-09-09T14:47:25.055Z,28.30
2022-09-09T14:49:51.641Z,27.21
2022-09-09T14:52:20.402Z,27.47
2022-09-09T14:54:47.404Z,27.77
2022-09-09T14:57:14.085Z,27.90
2022-09-09T14:59:41.087Z,27.82
2022-09-09T15:02:10.372Z,27.83
2022-09-09T15:04:37.185Z,27.77
2022-09-09T15:07:04.332Z,27.68
2022-09-09T15:09:31.069Z,27.65
2022-09-09T15:12:02.226Z,27.70
2022-09-09T15:14:28.851Z,27.56
2022-09-09T15:16:55.431Z,27.59
2022-09-09T15:19:22.058Z,27.67
2022-09-09T15:21:48.822Z,27.60
2022-09-09T15:24:15.667Z,27.69
2022-09-09T15:26:42.291Z,27.76
2022-09-09T15:29:09.788Z,27.85
2022-09-09T15:31:37.408Z,27.78
2022-09-09T15:34:10.502Z,27.75
2022-09-09T15:36:43.842Z,27.65
2022-09-09T15:39:16.907Z,27.65
2022-09-09T15:41:44.835Z,27.64
2022-09-09T15:44:14.943Z,27.61
2022-09-09T15:46:46.881Z,27.51
2022-09-09T15:49:19.415Z,27.36
2022-09-09T15:51:59.989Z,27.45
2022-09-09T15:54:27.244Z,27.36
2022-09-09T15:56:58.646Z,27.22
2022-09-09T15:59:26.995Z,27.16
2022-09-09T16:01:54.632Z,27.20
2022-09-09T16:04:25.995Z,27.16
2022-09-09T16:06:55.645Z,27.22
2022-09-09T16:09:22.913Z,27.13
2022-09-09T16:11:49.953Z,26.88
2022-09-09T16:14:16.932Z,26.85
2022-09-09T16:16:43.919Z,26.82
2022-09-09T16:19:13.609Z,26.74
2022-09-09T16:21:45.821Z,26.64
2022-09-09T16:24:15.191Z,26.70
2022-09-09T16:26:46.888Z,26.67
2022-09-09T16:29:15.408Z,26.60
2022-09-09T16:31:43.012Z,26.45
2022-09-09T16:34:10.567Z,26.60
2022-09-09T16:36:40.178Z,26.46
2022-09-09T16:39:13.305Z,26.34
2022-09-09T16:41:41.495Z,26.40
2022-09-09T16:44:10.747Z,26.33
2022-09-09T16:46:40.631Z,26.31
2022-09-09T16:49:11.037Z,26.26
2022-09-09T16:51:41.272Z,26.21
2022-09-09T16:54:09.832Z,26.23
2022-09-09T16:56:39.067Z,26.27
2022-09-09T16:59:09.551Z,26.18
2022-09-09T17:01:38.692Z,26.21
2022-09-09T17:04:08.577Z,26.26
2022-09-09T17:06:36.144Z,26.20
2022-09-09T17:09:06.226Z,26.16
2022-09-09T17:11:33.148Z,26.21
2022-09-09T17:14:01.316Z,26.21
2022-09-09T17:16:31.060Z,26.10
2022-09-09T17:19:04.437Z,26.23
2022-09-09T17:21:32.210Z,26.12
2022-09-09T17:23:59.814Z,26.06
2022-09-09T17:26:29.513Z,26.08
2022-09-09T17:28:59.864Z,26.11
2022-09-09T17:31:27.615Z,26.06
2022-09-09T17:33:54.935Z,26.02
2022-09-09T17:36:31.664Z,26.02
2022-09-09T17:39:00.897Z,26.10
2022-09-09T17:41:36.489Z,25.98
2022-09-09T17:44:04.983Z,25.88
2022-09-09T17:46:36.112Z,25.89
2022-09-09T17:49:09.843Z,25.84
2022-09-09T17:51:37.321Z,25.89
2022-09-09T17:54:10.328Z,25.81
2022-09-09T17:56:38.480Z,25.86
2022-09-09T17:59:07.819Z,25.87
2022-09-09T18:01:39.869Z,25.83
2022-09-09T18:04:09.213Z,25.71
2022-09-09T18:06:39.163Z,25.80
2022-09-09T18:09:13.261Z,25.75
2022-09-09T18:11:43.937Z,25.59
2022-09-09T18:14:13.826Z,25.69
2022-09-09T18:16:40.956Z,25.82
2022-09-09T18:19:10.394Z,25.82
2022-09-09T18:21:37.132Z,25.75
2022-09-09T18:24:06.083Z,25.80
2022-09-09T18:26:34.101Z,25.79
2022-09-09T18:29:06.179Z,25.52
2022-09-09T18:31:33.257Z,25.12
2022-09-09T18:34:03.247Z,24.84
2022-09-09T18:36:36.516Z,24.91
2022-09-09T18:39:05.621Z,25.26
2022-09-09T18:41:37.906Z,25.49
2022-09-09T18:44:11.575Z,24.11
2022-09-09T18:46:39.949Z,24.41
2022-09-09T18:49:07.037Z,24.85
2022-09-09T18:51:35.479Z,25.29
2022-09-09T18:54:23.135Z,25.41
2022-09-09T18:56:50.593Z,25.48
2022-09-09T18:59:20.502Z,25.52
2022-09-09T19:01:50.851Z,25.47
2022-09-09T19:04:18.491Z,25.45
2022-09-09T19:06:49.591Z,25.57
2022-09-09T19:09:18.646Z,25.65
2022-09-09T19:11:46.189Z,25.57
2022-09-09T19:14:15.483Z,25.55
2022-09-09T19:16:42.936Z,25.57
2022-09-09T19:19:24.764Z,25.53
2022-09-09T19:21:57.493Z,25.55
2022-09-09T19:24:30.346Z,25.53
2022-09-09T19:27:02.961Z,25.52
2022-09-09T19:29:32.517Z,25.57
2022-09-09T19:34:48.913Z,25.60
2022-09-09T19:37:18.500Z,25.59
2022-09-09T19:39:46.725Z,25.61
2022-09-09T19:42:13.554Z,25.63
2022-09-09T19:44:40.268Z,25.67
2022-09-09T19:47:07.443Z,25.62
2022-09-09T19:49:35.300Z,25.63
2022-09-09T19:52:02.499Z,25.54
2022-09-09T19:54:29.248Z,25.53
2022-09-09T19:56:55.937Z,25.61
2022-09-09T19:59:22.800Z,25.57
2022-09-09T20:01:50.483Z,25.55
2022-09-09T20:04:17.961Z,25.53
2022-09-09T20:06:44.624Z,25.47
2022-09-09T20:09:15.119Z,25.55
2022-09-09T20:11:43.402Z,25.54
2022-09-09T20:14:11.725Z,25.52
2022-09-09T20:16:39.324Z,25.46
2022-09-09T20:19:07.856Z,25.52
2022-09-09T20:21:38.342Z,25.60
2022-09-09T20:24:07.656Z,25.47
2022-09-09T20:26:37.645Z,25.41
2022-09-09T20:29:07.756Z,25.40
2022-09-09T20:31:37.085Z,25.46
2022-09-09T20:34:06.161Z,25.37
2022-09-09T20:36:35.520Z,25.23
2022-09-09T20:39:07.393Z,25.15
2022-09-09T20:41:35.592Z,25.41
2022-09-09T20:44:05.985Z,25.03
2022-09-09T20:46:36.531Z,25.13
2022-09-09T20:49:06.664Z,25.13
2022-09-09T20:51:34.715Z,25.10
2022-09-09T20:54:05.591Z,25.10
2022-09-09T20:56:34.712Z,25.19
2022-09-09T20:59:02.132Z,25.17
2022-09-09T21:01:28.811Z,25.20
2022-09-09T21:03:55.662Z,25.17
2022-09-09T21:06:22.923Z,25.15
2022-09-09T21:08:50.891Z,25.14
2022-09-09T21:11:17.934Z,25.09
2022-09-09T21:13:44.745Z,24.88
2022-09-09T21:16:19.520Z,24.68
2022-09-09T21:18:46.844Z,25.00
2022-09-09T21:21:15.011Z,24.91
2022-09-09T21:23:42.200Z,24.84
2022-09-09T21:26:09.972Z,24.75
2022-09-09T21:28:37.156Z,24.81
2022-09-09T21:31:05.764Z,24.89
2022-09-09T21:33:34.633Z,24.77
2022-09-09T21:36:06.050Z,24.74
2022-09-09T21:38:33.407Z,24.80
2022-09-09T21:41:08.658Z,24.64
2022-09-09T21:43:35.787Z,24.57
2022-09-09T21:46:10.347Z,24.42
2022-09-09T21:48:37.254Z,24.52
2022-09-09T21:51:06.520Z,24.54
2022-09-09T21:53:33.646Z,24.55
2022-09-09T21:56:09.176Z,23.95
2022-09-09T21:58:36.321Z,24.15
2022-09-09T22:01:09.904Z,24.16
2022-09-09T22:03:42.543Z,24.35
2022-09-09T22:06:11.838Z,24.51
2022-09-09T22:08:38.664Z,24.48
2022-09-09T22:11:08.036Z,24.41
2022-09-09T22:13:35.351Z,24.22
2022-09-09T22:16:04.210Z,24.32
2022-09-09T22:18:34.794Z,24.29
2022-09-09T22:21:14.325Z,24.18
2022-09-09T22:23:41.138Z,24.05
2022-09-09T22:26:08.186Z,24.15
2022-09-09T22:28:35.971Z,24.01
2022-09-09T22:31:02.722Z,24.17
2022-09-09T22:33:29.645Z,24.18
2022-09-09T22:35:56.653Z,24.18
2022-09-09T22:38:23.296Z,24.34
2022-09-09T22:40:50.025Z,24.14
2022-09-09T22:43:19.885Z,24.10
2022-09-09T22:45:46.530Z,24.03
2022-09-09T22:48:14.733Z,24.11
2022-09-09T22:50:42.633Z,24.18
2022-09-09T22:53:13.535Z,23.50
2022-09-09T22:55:41.178Z,23.90
2022-09-09T22:58:08.110Z,23.93
2022-09-09T23:00:35.277Z,23.91
2022-09-09T23:03:02.220Z,23.71
2022-09-09T23:05:30.711Z,23.93
2022-09-09T23:07:58.571Z,24.08
2022-09-09T23:10:27.170Z,23.99
2022-09-09T23:12:54.169Z,23.86
2022-09-09T23:15:20.947Z,23.93
2022-09-09T23:17:47.553Z,24.01
2022-09-09T23:20:14.314Z,24.06
2022-09-09T23:22:41.121Z,24.16
2022-09-09T23:25:08.140Z,24.24
2022-09-09T23:27:37.347Z,24.30
2022-09-09T23:30:07.145Z,24.27
2022-09-09T23:32:33.845Z,24.24
2022-09-09T23:35:01.000Z,24.23
2022-09-09T23:37:27.627Z,24.27
2022-09-09T23:39:54.684Z,24.27
2022-09-09T23:42:21.348Z,24.25
2022-09-09T23:44:48.342Z,24.28
2022-09-09T23:47:14.973Z,24.17
2022-09-09T23:49:41.583Z,24.04
2022-09-09T23:52:08.903Z,23.83
2022-09-09T23:54:35.866Z,23.99
2022-09-09T23:57:03.974Z,24.17
2022-09-09T23:59:31.628Z,24.12
